Time,TemperatureF,DewpointF,PressureIn,WindDirection,WindDirectionDegrees,WindSpeedMPH,WindSpeedGustMPH,Humidity,HourlyPrecipIn,Conditions,Clouds,dailyrainin,SolarRadiationWatts/m^2,SoftwareType,DateUTC
2013-01-15 00:01:00,38.8,25.7,30.36,ENE,71,0.0,2.0,59,0.00,,,0.01,0,HR-IXP-WINDi_r2_v1.2,2013-01-15 08:01:00,
2013-01-15 00:06:00,38.6,25.9,30.36,ENE,71,0.0,2.0,60,0.00,,,0.01,0,HR-IXP-WINDi_r2_v1.2,2013-01-15 08:06:00,
2013-01-15 00:11:00,38.3,26.0,30.36,ENE,71,1.0,2.0,61,0.00,,,0.01,0,HR-IXP-WINDi_r2_v1.2,2013-01-15 08:11:00,
2013-01-15 00:17:00,38.2,25.9,30.37,ENE,71,0.0,1.0,61,0.00,,,0.01,0,HR-IXP-WINDi_r2_v1.2,2013-01-15 08:17:00,
2013-01-15 00:22:00,38.1,26.2,30.37,ENE,71,0.0,1.0,62,0.00,,,0.01,0,HR-IXP-WINDi_r2_v1.2,2013-01-15 08:22:00,
2013-01-15 00:27:00,38.0,26.1,30.37,ENE,71,1.0,2.0,62,0.00,,,0.01,0,HR-IXP-WINDi_r2_v1.2,2013-01-15 08:27:00,
2013-01-15 00:32:00,37.9,26.4,30.37,ENE,71,0.0,2.0,63,0.00,,,0.01,0,HR-IXP-WINDi_r2_v1.2,2013-01-15 08:32:00,
2013-01-15 00:37:00,38.1,26.6,30.37,ENE,70,0.0,2.0,63,0.00,,,0.01,0,HR-IXP-WINDi_r2_v1.2,2013-01-15 08:37:00,
2013-01-15 00:42:00,38.2,26.7,30.37,ENE,70,0.0,2.0,63,0.00,,,0.01,0,HR-IXP-WINDi_r2_v1.2,2013-01-15 08:42:00,
2013-01-15 00:47:00,38.0,26.5,30.37,ENE,70,0.0,1.0,63,0.00,,,0.01,0,HR-IXP-WINDi_r2_v1.2,2013-01-15 08:47:00,
2013-01-15 00:52:00,37.8,26.7,30.38,ENE,70,0.0,1.0,64,0.00,,,0.01,0,HR-IXP-WINDi_r2_v1.2,2013-01-15 08:52:00,
2013-01-15 00:58:00,38.0,26.9,30.38,ENE,70,0.0,0.0,64,0.00,,,0.01,0,HR-IXP-WINDi_r2_v1.2,2013-01-15 08:58:00,
2013-01-15 01:03:00,37.6,26.5,30.39,ENE,70,0.0,0.0,64,0.00,,,0.01,0,HR-IXP-WINDi_r2_v1.2,2013-01-15 09:03:00,
2013-01-15 01:08:00,37.7,27.0,30.39,ENE,70,0.0,1.0,65,0.00,,,0.01,0,HR-IXP-WINDi_r2_v1.2,2013-01-15 09:08:00,
2013-01-15 01:14:00,37.8,27.1,30.39,ENE,70,0.0,1.0,65,0.00,,,0.01,0,HR-IXP-WINDi_r2_v1.2,2013-01-15 09:14:00,
2013-01-15 01:19:00,37.7,27.0,30.40,ENE,70,0.0,0.0,65,0.00,,,0.01,0,HR-IXP-WINDi_r2_v1.2,2013-01-15 09:19:00,
2013-01-15 01:24:00,37.8,27.1,30.40,ENE,70,0.0,0.0,65,0.00,,,0.01,0,HR-IXP-WINDi_r2_v1.2,2013-01-15 09:24:00,
2013-01-15 01:29:00,37.3,27.0,30.39,ENE,70,0.0,1.0,66,0.00,,,0.01,0,HR-IXP-WINDi_r2_v1.2,2013-01-15 09:29:00,
2013-01-15 01:34:00,37.4,27.4,30.40,ENE,70,0.0,1.0,67,0.00,,,0.01,0,HR-IXP-WINDi_r2_v1.2,2013-01-15 09:34:00,
2013-01-15 01:39:00,37.1,27.1,30.40,ENE,70,0.0,0.0,67,0.00,,,0.01,0,HR-IXP-WINDi_r2_v1.2,2013-01-15 09:39:00,
2013-01-15 01:44:00,37.0,27.0,30.41,ENE,70,0.0,0.0,67,0.00,,,0.01,0,HR-IXP-WINDi_r2_v1.2,2013-01-15 09:44:00,
2013-01-15 01:49:00,36.8,27.2,30.41,ENE,70,0.0,0.0,68,0.00,,,0.01,0,HR-IXP-WINDi_r2_v1.2,2013-01-15 09:49:00,
2013-01-15 01:55:00,36.4,27.2,30.41,ENE,70,0.0,0.0,69,0.00,,,0.01,0,HR-IXP-WINDi_r2_v1.2,2013-01-15 09:55:00,
2013-01-15 02:00:00,36.1,26.9,30.41,ENE,70,0.0,0.0,69,0.00,,,0.01,0,HR-IXP-WINDi_r2_v1.2,2013-01-15 10:00:00,
2013-01-15 02:05:00,35.6,26.4,30.41,ENE,70,0.0,0.0,69,0.00,,,0.01,0,HR-IXP-WINDi_r2_v1.2,2013-01-15 10:05:00,
2013-01-15 02:10:00,36.0,27.2,30.41,ENE,70,0.0,0.0,70,0.00,,,0.01,0,HR-IXP-WINDi_r2_v1.2,2013-01-15 10:10:00,
2013-01-15 02:15:00,36.2,27.3,30.41,ENE,70,0.0,0.0,70,0.00,,,0.01,0,HR-IXP-WINDi_r2_v1.2,2013-01-15 10:15:00,
2013-01-15 02:20:00,36.3,27.4,30.42,ENE,70,0.0,0.0,70,0.00,,,0.01,0,HR-IXP-WINDi_r2_v1.2,2013-01-15 10:20:00,
2013-01-15 02:25:00,35.9,27.1,30.42,ENE,70,0.0,0.0,70,0.00,,,0.01,0,HR-IXP-WINDi_r2_v1.2,2013-01-15 10:25:00,
2013-01-15 02:30:00,35.7,27.2,30.42,ENE,70,0.0,1.0,71,0.00,,,0.01,0,HR-IXP-WINDi_r2_v1.2,2013-01-15 10:30:00,
2013-01-15 02:35:00,35.6,27.1,30.42,ENE,70,0.0,1.0,71,0.00,,,0.01,0,HR-IXP-WINDi_r2_v1.2,2013-01-15 10:35:00,
2013-01-15 02:41:00,35.5,27.0,30.42,ENE,70,0.0,0.0,71,0.00,,,0.01,0,HR-IXP-WINDi_r2_v1.2,2013-01-15 10:41:00,
2013-01-15 02:46:00,35.6,27.5,30.43,ENE,70,0.0,1.0,72,0.00,,,0.01,0,HR-IXP-WINDi_r2_v1.2,2013-01-15 10:46:00,
2013-01-15 02:51:00,35.5,27.4,30.42,ENE,70,0.0,1.0,72,0.00,,,0.01,0,HR-IXP-WINDi_r2_v1.2,2013-01-15 10:51:00,
2013-01-15 02:57:00,35.7,27.5,30.42,ENE,70,0.0,1.0,72,0.00,,,0.01,0,HR-IXP-WINDi_r2_v1.2,2013-01-15 10:57:00,
2013-01-15 03:02:00,35.6,27.1,30.41,ENE,70,0.0,1.0,71,0.00,,,0.01,0,HR-IXP-WINDi_r2_v1.2,2013-01-15 11:02:00,
2013-01-15 03:07:00,35.5,27.4,30.42,ENE,70,0.0,1.0,72,0.00,,,0.01,0,HR-IXP-WINDi_r2_v1.2,2013-01-15 11:07:00,
2013-01-15 03:12:00,35.5,27.4,30.41,ENE,70,0.0,1.0,72,0.00,,,0.01,0,HR-IXP-WINDi_r2_v1.2,2013-01-15 11:12:00,
2013-01-15 03:17:00,35.7,27.5,30.42,ENE,70,0.0,0.0,72,0.00,,,0.01,0,HR-IXP-WINDi_r2_v1.2,2013-01-15 11:17:00,
2013-01-15 03:22:00,35.6,27.5,30.42,ENE,70,0.0,1.0,72,0.00,,,0.01,0,HR-IXP-WINDi_r2_v1.2,2013-01-15 11:22:00,
2013-01-15 03:28:00,35.0,26.9,30.42,ENE,70,0.0,1.0,72,0.00,,,0.01,0,HR-IXP-WINDi_r2_v1.2,2013-01-15 11:28:00,
2013-01-15 03:33:00,34.7,26.9,30.42,ENE,70,0.0,1.0,73,0.00,,,0.01,0,HR-IXP-WINDi_r2_v1.2,2013-01-15 11:33:00,
2013-01-15 03:38:00,34.7,27.2,30.42,ENE,70,0.0,1.0,74,0.00,,,0.01,0,HR-IXP-WINDi_r2_v1.2,2013-01-15 11:38:00,
2013-01-15 03:43:00,34.5,26.7,30.42,ENE,70,0.0,0.0,73,0.00,,,0.01,0,HR-IXP-WINDi_r2_v1.2,2013-01-15 11:43:00,
2013-01-15 03:48:00,34.5,27.1,30.42,ENE,70,0.0,1.0,74,0.00,,,0.01,0,HR-IXP-WINDi_r2_v1.2,2013-01-15 11:48:00,
2013-01-15 03:54:00,34.6,27.2,30.41,ENE,70,0.0,1.0,74,0.00,,,0.01,0,HR-IXP-WINDi_r2_v1.2,2013-01-15 11:54:00,
2013-01-15 03:59:00,34.6,27.2,30.41,ENE,70,0.0,1.0,74,0.00,,,0.01,0,HR-IXP-WINDi_r2_v1.2,2013-01-15 11:59:00,
2013-01-15 04:04:00,34.4,27.0,30.41,ENE,70,0.0,0.0,74,0.00,,,0.01,0,HR-IXP-WINDi_r2_v1.2,2013-01-15 12:04:00,
2013-01-15 04:09:00,34.1,26.7,30.41,ENE,70,0.0,0.0,74,0.00,,,0.01,0,HR-IXP-WINDi_r2_v1.2,2013-01-15 12:09:00,
2013-01-15 04:15:00,34.1,27.0,30.41,ENE,70,0.0,0.0,75,0.00,,,0.01,0,HR-IXP-WINDi_r2_v1.2,2013-01-15 12:15:00,
2013-01-15 04:20:00,34.3,27.2,30.41,ENE,70,0.0,0.0,75,0.00,,,0.01,0,HR-IXP-WINDi_r2_v1.2,2013-01-15 12:20:00,
2013-01-15 04:25:00,34.3,27.2,30.41,ENE,70,0.0,1.0,75,0.00,,,0.01,0,HR-IXP-WINDi_r2_v1.2,2013-01-15 12:25:00,
2013-01-15 04:30:00,34.2,26.8,30.41,ENE,70,0.0,1.0,74,0.00,,,0.01,0,HR-IXP-WINDi_r2_v1.2,2013-01-15 12:30:00,
2013-01-15 04:35:00,34.2,26.8,30.41,ENE,70,0.0,1.0,74,0.00,,,0.01,0,HR-IXP-WINDi_r2_v1.2,2013-01-15 12:35:00,
2013-01-15 04:41:00,33.9,26.5,30.42,ENE,70,0.0,0.0,74,0.00,,,0.01,0,HR-IXP-WINDi_r2_v1.2,2013-01-15 12:41:00,
2013-01-15 04:46:00,34.2,27.1,30.41,ENE,70,0.0,0.0,75,0.00,,,0.01,0,HR-IXP-WINDi_r2_v1.2,2013-01-15 12:46:00,
2013-01-15 04:51:00,33.9,26.5,30.41,ENE,70,0.0,0.0,74,0.00,,,0.01,0,HR-IXP-WINDi_r2_v1.2,2013-01-15 12:51:00,
2013-01-15 04:56:00,33.9,26.8,30.41,ENE,70,0.0,0.0,75,0.00,,,0.01,0,HR-IXP-WINDi_r2_v1.2,2013-01-15 12:56:00,
2013-01-15 05:01:00,33.9,26.5,30.41,ENE,70,0.0,1.0,74,0.00,,,0.01,0,HR-IXP-WINDi_r2_v1.2,2013-01-15 13:01:00,
2013-01-15 05:06:00,33.8,26.4,30.42,ENE,70,0.0,2.0,74,0.00,,,0.01,0,HR-IXP-WINDi_r2_v1.2,2013-01-15 13:06:00,
2013-01-15 05:11:00,33.9,26.8,30.42,ENE,70,0.0,2.0,75,0.00,,,0.01,0,HR-IXP-WINDi_r2_v1.2,2013-01-15 13:11:00,
2013-01-15 05:16:00,34.2,27.1,30.42,ENE,70,0.0,2.0,75,0.00,,,0.01,0,HR-IXP-WINDi_r2_v1.2,2013-01-15 13:16:00,
2013-01-15 05:22:00,34.0,26.9,30.42,ENE,70,0.0,1.0,75,0.00,,,0.01,0,HR-IXP-WINDi_r2_v1.2,2013-01-15 13:22:00,
2013-01-15 05:27:00,33.9,26.8,30.42,ENE,70,0.0,1.0,75,0.00,,,0.01,0,HR-IXP-WINDi_r2_v1.2,2013-01-15 13:27:00,
2013-01-15 05:32:00,33.7,26.6,30.43,ENE,70,0.0,1.0,75,0.00,,,0.01,0,HR-IXP-WINDi_r2_v1.2,2013-01-15 13:32:00,
2013-01-15 05:38:00,33.6,26.8,30.43,ENE,70,0.0,1.0,76,0.00,,,0.01,0,HR-IXP-WINDi_r2_v1.2,2013-01-15 13:38:00,
2013-01-15 05:43:00,33.5,26.4,30.43,ENE,70,0.0,1.0,75,0.00,,,0.01,0,HR-IXP-WINDi_r2_v1.2,2013-01-15 13:43:00,
2013-01-15 05:48:00,33.3,26.2,30.43,ENE,70,0.0,1.0,75,0.00,,,0.01,0,HR-IXP-WINDi_r2_v1.2,2013-01-15 13:48:00,
2013-01-15 05:53:00,33.0,26.3,30.43,ENE,70,0.0,0.0,76,0.00,,,0.01,0,HR-IXP-WINDi_r2_v1.2,2013-01-15 13:53:00,
2013-01-15 05:59:00,33.1,26.3,30.43,ENE,70,0.0,1.0,76,0.00,,,0.01,0,HR-IXP-WINDi_r2_v1.2,2013-01-15 13:59:00,
2013-01-15 06:04:00,33.2,26.8,30.43,ENE,70,0.0,1.0,77,0.00,,,0.01,0,HR-IXP-WINDi_r2_v1.2,2013-01-15 14:04:00,
2013-01-15 06:09:00,32.6,25.9,30.44,ENE,70,0.0,1.0,76,0.00,,,0.01,0,HR-IXP-WINDi_r2_v1.2,2013-01-15 14:09:00,
2013-01-15 06:14:00,33.0,26.6,30.44,ENE,70,0.0,1.0,77,0.00,,,0.01,0,HR-IXP-WINDi_r2_v1.2,2013-01-15 14:14:00,
2013-01-15 06:19:00,33.2,26.8,30.44,ENE,70,0.0,0.0,77,0.00,,,0.01,0,HR-IXP-WINDi_r2_v1.2,2013-01-15 14:19:00,
2013-01-15 06:24:00,33.1,26.7,30.43,ENE,70,0.0,0.0,77,0.00,,,0.01,0,HR-IXP-WINDi_r2_v1.2,2013-01-15 14:24:00,
2013-01-15 06:29:00,33.4,26.6,30.43,ENE,70,0.0,0.0,76,0.00,,,0.01,0,HR-IXP-WINDi_r2_v1.2,2013-01-15 14:29:00,
2013-01-15 06:35:00,33.6,26.5,30.43,ENE,70,0.0,0.0,75,0.00,,,0.01,0,HR-IXP-WINDi_r2_v1.2,2013-01-15 14:35:00,
2013-01-15 06:40:00,33.4,26.3,30.43,ENE,70,0.0,0.0,75,0.00,,,0.01,0,HR-IXP-WINDi_r2_v1.2,2013-01-15 14:40:00,
2013-01-15 06:45:00,33.1,26.3,30.43,ENE,70,0.0,0.0,76,0.00,,,0.01,0,HR-IXP-WINDi_r2_v1.2,2013-01-15 14:45:00,
2013-01-15 06:50:00,33.4,26.6,30.43,ENE,70,0.0,0.0,76,0.00,,,0.01,0,HR-IXP-WINDi_r2_v1.2,2013-01-15 14:50:00,
2013-01-15 06:55:00,33.3,26.2,30.43,ENE,70,0.0,0.0,75,0.00,,,0.01,0,HR-IXP-WINDi_r2_v1.2,2013-01-15 14:55:00,
2013-01-15 07:00:00,33.5,26.1,30.43,ENE,70,0.0,0.0,74,0.00,,,0.01,5,HR-IXP-WINDi_r2_v1.2,2013-01-15 15:00:00,
2013-01-15 07:05:00,34.0,26.2,30.44,ENE,70,0.0,0.0,73,0.00,,,0.01,9,HR-IXP-WINDi_r2_v1.2,2013-01-15 15:05:00,
2013-01-15 07:11:00,34.2,26.1,30.44,ENE,70,0.0,0.0,72,0.00,,,0.01,14,HR-IXP-WINDi_r2_v1.2,2013-01-15 15:11:00,
2013-01-15 07:16:00,34.8,26.3,30.45,ENE,70,0.0,0.0,71,0.00,,,0.01,19,HR-IXP-WINDi_r2_v1.2,2013-01-15 15:16:00,
2013-01-15 07:21:00,35.3,26.1,30.45,ENE,70,0.0,0.0,69,0.00,,,0.01,23,HR-IXP-WINDi_r2_v1.2,2013-01-15 15:21:00,
2013-01-15 07:26:00,35.9,25.6,30.45,ENE,70,0.0,1.0,66,0.00,,,0.01,33,HR-IXP-WINDi_r2_v1.2,2013-01-15 15:26:00,
2013-01-15 07:32:00,36.8,25.4,30.45,ENE,70,0.0,1.0,63,0.00,,,0.01,40,HR-IXP-WINDi_r2_v1.2,2013-01-15 15:32:00,
2013-01-15 07:37:00,37.5,25.7,30.46,ENE,70,0.0,1.0,62,0.00,,,0.01,46,HR-IXP-WINDi_r2_v1.2,2013-01-15 15:37:00,
2013-01-15 07:42:00,38.2,25.9,30.46,ENE,70,0.0,0.0,61,0.00,,,0.01,58,HR-IXP-WINDi_r2_v1.2,2013-01-15 15:42:00,
2013-01-15 07:47:00,38.8,26.5,30.46,ENE,70,0.0,0.0,61,0.00,,,0.01,70,HR-IXP-WINDi_r2_v1.2,2013-01-15 15:47:00,
2013-01-15 07:52:00,39.3,26.2,30.46,ENE,70,0.0,0.0,59,0.00,,,0.01,79,HR-IXP-WINDi_r2_v1.2,2013-01-15 15:52:00,
2013-01-15 07:58:00,39.8,26.2,30.47,ENE,70,0.0,0.0,58,0.00,,,0.01,90,HR-IXP-WINDi_r2_v1.2,2013-01-15 15:58:00,
2013-01-15 08:03:00,40.5,26.0,30.47,ENE,70,0.0,0.0,56,0.00,,,0.02,100,HR-IXP-WINDi_r2_v1.2,2013-01-15 16:03:00,
2013-01-15 08:08:00,40.7,25.3,30.47,ENE,70,0.0,0.0,54,0.00,,,0.02,116,HR-IXP-WINDi_r2_v1.2,2013-01-15 16:08:00,
2013-01-15 08:13:00,42.0,26.1,30.47,ENE,70,0.0,0.0,53,0.00,,,0.02,134,HR-IXP-WINDi_r2_v1.2,2013-01-15 16:13:00,
2013-01-15 08:18:00,42.4,24.6,30.47,ENE,70,0.0,1.0,49,0.00,,,0.02,146,HR-IXP-WINDi_r2_v1.2,2013-01-15 16:18:00,
2013-01-15 08:23:00,42.9,24.0,30.48,ENE,70,1.0,2.0,47,0.00,,,0.02,156,HR-IXP-WINDi_r2_v1.2,2013-01-15 16:23:00,
2013-01-15 08:29:00,43.5,24.1,30.48,ENE,70,0.0,2.0,46,0.00,,,0.03,165,HR-IXP-WINDi_r2_v1.2,2013-01-15 16:29:00,
2013-01-15 08:34:00,44.7,23.6,30.48,ENE,70,1.0,2.0,43,0.00,,,0.03,169,HR-IXP-WINDi_r2_v1.2,2013-01-15 16:34:00,
2013-01-15 08:39:00,45.6,22.7,30.49,ENE,70,0.0,2.0,40,0.00,,,0.03,167,HR-IXP-WINDi_r2_v1.2,2013-01-15 16:39:00,
2013-01-15 08:44:00,46.8,21.9,30.48,ENE,70,2.0,3.0,37,0.04,,,0.04,165,HR-IXP-WINDi_r2_v1.2,2013-01-15 16:44:00,
2013-01-15 08:50:00,46.2,21.4,30.48,ENE,70,1.0,3.0,37,0.04,,,0.04,185,HR-IXP-WINDi_r2_v1.2,2013-01-15 16:50:00,
2013-01-15 08:55:00,45.9,21.7,30.49,ENE,70,1.0,3.0,38,0.04,,,0.04,225,HR-IXP-WINDi_r2_v1.2,2013-01-15 16:55:00,
2013-01-15 09:00:00,46.5,22.3,30.49,ENE,70,0.0,2.0,38,0.04,,,0.04,257,HR-IXP-WINDi_r2_v1.2,2013-01-15 17:00:00,
2013-01-15 09:05:00,46.7,21.2,30.49,ENE,70,1.0,2.0,36,0.00,,,0.04,279,HR-IXP-WINDi_r2_v1.2,2013-01-15 17:05:00,
2013-01-15 09:10:00,47.7,22.0,30.50,ENE,69,2.0,3.0,36,0.00,,,0.05,302,HR-IXP-WINDi_r2_v1.2,2013-01-15 17:10:00,
2013-01-15 09:15:00,47.9,20.9,30.49,NE,44,1.0,4.0,34,0.00,,,0.05,297,HR-IXP-WINDi_r2_v1.2,2013-01-15 17:15:00,
2013-01-15 09:21:00,48.3,21.2,30.49,NE,44,1.0,4.0,34,0.00,,,0.05,281,HR-IXP-WINDi_r2_v1.2,2013-01-15 17:21:00,
2013-01-15 09:26:00,48.8,21.0,30.49,NE,43,1.0,4.0,33,0.00,,,0.05,274,HR-IXP-WINDi_r2_v1.2,2013-01-15 17:26:00,
2013-01-15 09:31:00,48.9,21.1,30.50,NE,42,0.0,4.0,33,0.00,,,0.05,269,HR-IXP-WINDi_r2_v1.2,2013-01-15 17:31:00,
2013-01-15 09:36:00,49.0,24.5,30.49,NNW,348,3.0,4.0,38,0.00,,,0.06,281,HR-IXP-WINDi_r2_v1.2,2013-01-15 17:36:00,
2013-01-15 09:41:00,49.1,23.3,30.49,WNW,300,2.0,4.0,36,0.00,,,0.06,325,HR-IXP-WINDi_r2_v1.2,2013-01-15 17:41:00,
2013-01-15 09:46:00,49.2,23.4,30.50,NW,312,2.0,4.0,36,0.00,,,0.06,367,HR-IXP-WINDi_r2_v1.2,2013-01-15 17:46:00,
2013-01-15 09:52:00,49.7,23.8,30.49,NW,320,2.0,3.0,36,0.00,,,0.06,332,HR-IXP-WINDi_r2_v1.2,2013-01-15 17:52:00,
2013-01-15 09:57:00,50.0,23.4,30.49,NW,317,0.0,3.0,35,0.00,,,0.07,341,HR-IXP-WINDi_r2_v1.2,2013-01-15 17:57:00,
2013-01-15 10:02:00,50.9,24.2,30.49,NW,317,0.0,3.0,35,0.00,,,0.07,411,HR-IXP-WINDi_r2_v1.2,2013-01-15 18:02:00,
2013-01-15 10:08:00,51.5,24.0,30.48,NW,317,2.0,3.0,34,0.00,,,0.07,413,HR-IXP-WINDi_r2_v1.2,2013-01-15 18:08:00,
2013-01-15 10:13:00,51.3,23.2,30.49,NW,317,0.0,3.0,33,0.00,,,0.07,399,HR-IXP-WINDi_r2_v1.2,2013-01-15 18:13:00,
2013-01-15 10:18:00,51.9,24.4,30.48,WNW,303,1.0,4.0,34,0.00,,,0.08,367,HR-IXP-WINDi_r2_v1.2,2013-01-15 18:18:00,
2013-01-15 10:23:00,52.5,25.6,30.48,WNW,291,1.0,4.0,35,0.00,,,0.08,260,HR-IXP-WINDi_r2_v1.2,2013-01-15 18:23:00,
2013-01-15 10:29:00,53.1,24.7,30.47,NW,314,3.0,4.0,33,0.00,,,0.08,343,HR-IXP-WINDi_r2_v1.2,2013-01-15 18:29:00,
2013-01-15 10:34:00,53.8,21.5,30.47,NW,321,2.0,4.0,28,0.00,,,0.08,348,HR-IXP-WINDi_r2_v1.2,2013-01-15 18:34:00,
2013-01-15 10:39:00,54.4,22.8,30.47,WNW,295,0.0,4.0,29,0.00,,,0.08,410,HR-IXP-WINDi_r2_v1.2,2013-01-15 18:39:00,
2013-01-15 10:44:00,54.6,23.8,30.46,NNW,330,2.0,6.0,30,0.00,,,0.08,316,HR-IXP-WINDi_r2_v1.2,2013-01-15 18:44:00,
2013-01-15 10:49:00,55.0,23.3,30.45,WNW,299,3.0,6.0,29,0.00,,,0.08,299,HR-IXP-WINDi_r2_v1.2,2013-01-15 18:49:00,
2013-01-15 10:54:00,55.0,19.8,30.45,NW,323,2.0,7.0,25,0.00,,,0.08,388,HR-IXP-WINDi_r2_v1.2,2013-01-15 18:54:00,
2013-01-15 11:00:00,55.1,19.0,30.44,WNW,282,1.0,7.0,24,0.00,,,0.09,330,HR-IXP-WINDi_r2_v1.2,2013-01-15 19:00:00,
2013-01-15 11:05:00,55.9,20.6,30.44,NW,312,2.0,6.0,25,0.00,,,0.09,294,HR-IXP-WINDi_r2_v1.2,2013-01-15 19:05:00,
2013-01-15 11:10:00,56.3,21.9,30.44,West,270,3.0,6.0,26,0.00,,,0.09,309,HR-IXP-WINDi_r2_v1.2,2013-01-15 19:10:00,
2013-01-15 11:15:00,56.1,19.8,30.44,NNW,336,5.0,6.0,24,0.00,,,0.09,309,HR-IXP-WINDi_r2_v1.2,2013-01-15 19:15:00,
2013-01-15 11:20:00,56.2,17.9,30.44,NW,325,2.0,7.0,22,0.00,,,0.09,322,HR-IXP-WINDi_r2_v1.2,2013-01-15 19:20:00,
2013-01-15 11:26:00,56.5,20.1,30.43,NW,308,2.0,7.0,24,0.00,,,0.09,438,HR-IXP-WINDi_r2_v1.2,2013-01-15 19:26:00,
2013-01-15 11:31:00,56.3,19.0,30.43,NW,324,1.0,8.0,23,0.00,,,0.09,526,HR-IXP-WINDi_r2_v1.2,2013-01-15 19:31:00,
2013-01-15 11:36:00,57.0,18.5,30.42,NW,313,4.0,8.0,22,0.00,,,0.10,533,HR-IXP-WINDi_r2_v1.2,2013-01-15 19:36:00,
2013-01-15 11:41:00,57.7,19.1,30.42,WNW,283,2.0,6.0,22,0.00,,,0.10,533,HR-IXP-WINDi_r2_v1.2,2013-01-15 19:41:00,
2013-01-15 11:46:00,57.5,20.0,30.41,WNW,299,3.0,8.0,23,0.00,,,0.10,536,HR-IXP-WINDi_r2_v1.2,2013-01-15 19:46:00,
2013-01-15 11:51:00,57.6,19.0,30.42,West,281,3.0,8.0,22,0.00,,,0.10,538,HR-IXP-WINDi_r2_v1.2,2013-01-15 19:51:00,
2013-01-15 11:56:00,57.8,19.2,30.41,WNW,288,8.0,9.0,22,0.00,,,0.10,540,HR-IXP-WINDi_r2_v1.2,2013-01-15 19:56:00,
2013-01-15 12:02:00,57.9,19.3,30.41,West,279,2.0,10.0,22,0.00,,,0.00,541,HR-IXP-WINDi_r2_v1.2,2013-01-15 20:02:00,
2013-01-15 12:07:00,58.2,18.5,30.41,NW,319,2.0,10.0,21,0.00,,,0.00,540,HR-IXP-WINDi_r2_v1.2,2013-01-15 20:07:00,
2013-01-15 12:12:00,58.0,18.3,30.41,West,277,3.0,7.0,21,0.00,,,0.00,538,HR-IXP-WINDi_r2_v1.2,2013-01-15 20:12:00,
2013-01-15 12:17:00,58.7,17.7,30.40,NW,321,2.0,7.0,20,0.00,,,0.00,536,HR-IXP-WINDi_r2_v1.2,2013-01-15 20:17:00,
2013-01-15 12:22:00,58.4,17.5,30.40,WNW,284,2.0,8.0,20,0.00,,,0.00,534,HR-IXP-WINDi_r2_v1.2,2013-01-15 20:22:00,
2013-01-15 12:27:00,58.2,17.3,30.40,NW,315,3.0,9.0,20,0.00,,,0.00,536,HR-IXP-WINDi_r2_v1.2,2013-01-15 20:27:00,
2013-01-15 12:32:00,58.5,18.7,30.40,SW,236,6.0,9.0,21,0.00,,,0.00,538,HR-IXP-WINDi_r2_v1.2,2013-01-15 20:32:00,
2013-01-15 12:37:00,59.2,19.3,30.39,WNW,292,3.0,8.0,21,0.00,,,0.00,529,HR-IXP-WINDi_r2_v1.2,2013-01-15 20:37:00,
2013-01-15 12:43:00,59.6,18.5,30.39,NNW,329,4.0,6.0,20,0.00,,,0.00,524,HR-IXP-WINDi_r2_v1.2,2013-01-15 20:43:00,
2013-01-15 12:48:00,59.3,18.2,30.39,NNW,344,3.0,7.0,20,0.00,,,0.00,519,HR-IXP-WINDi_r2_v1.2,2013-01-15 20:48:00,
2013-01-15 12:53:00,59.3,17.1,30.38,NNW,343,4.0,8.0,19,0.00,,,0.00,515,HR-IXP-WINDi_r2_v1.2,2013-01-15 20:53:00,
2013-01-15 12:58:00,60.0,17.6,30.38,NNW,332,5.0,8.0,19,0.00,,,0.00,512,HR-IXP-WINDi_r2_v1.2,2013-01-15 20:58:00,
2013-01-15 13:03:00,59.7,18.6,30.38,West,273,2.0,7.0,20,0.00,,,0.00,504,HR-IXP-WINDi_r2_v1.2,2013-01-15 21:03:00,
2013-01-15 13:08:00,59.9,17.5,30.38,NW,318,5.0,7.0,19,0.00,,,0.00,499,HR-IXP-WINDi_r2_v1.2,2013-01-15 21:08:00,
2013-01-15 13:14:00,59.6,18.5,30.38,West,261,4.0,8.0,20,0.00,,,0.00,494,HR-IXP-WINDi_r2_v1.2,2013-01-15 21:14:00,
2013-01-15 13:19:00,59.7,18.6,30.37,NW,305,2.0,8.0,20,0.00,,,0.00,489,HR-IXP-WINDi_r2_v1.2,2013-01-15 21:19:00,
2013-01-15 13:24:00,60.0,17.6,30.37,WNW,287,5.0,8.0,19,0.00,,,0.00,480,HR-IXP-WINDi_r2_v1.2,2013-01-15 21:24:00,
2013-01-15 13:29:00,60.1,17.7,30.37,WNW,302,1.0,7.0,19,0.00,,,0.00,475,HR-IXP-WINDi_r2_v1.2,2013-01-15 21:29:00,
2013-01-15 13:34:00,60.1,17.7,30.37,West,277,3.0,9.0,19,0.00,,,0.00,469,HR-IXP-WINDi_r2_v1.2,2013-01-15 21:34:00,
2013-01-15 13:39:00,60.5,18.0,30.36,NW,326,2.0,9.0,19,0.00,,,0.00,461,HR-IXP-WINDi_r2_v1.2,2013-01-15 21:39:00,
2013-01-15 13:45:00,60.6,19.3,30.36,NW,317,3.0,8.0,20,0.00,,,0.00,452,HR-IXP-WINDi_r2_v1.2,2013-01-15 21:45:00,
2013-01-15 13:50:00,60.9,19.6,30.37,North,355,2.0,8.0,20,0.00,,,0.00,443,HR-IXP-WINDi_r2_v1.2,2013-01-15 21:50:00,
2013-01-15 13:55:00,61.1,18.5,30.37,West,270,3.0,7.0,19,0.00,,,0.00,436,HR-IXP-WINDi_r2_v1.2,2013-01-15 21:55:00,
2013-01-15 14:00:00,61.0,18.5,30.36,WSW,255,5.0,7.0,19,0.00,,,0.00,429,HR-IXP-WINDi_r2_v1.2,2013-01-15 22:00:00,
2013-01-15 14:05:00,60.8,18.3,30.36,West,268,4.0,9.0,19,0.00,,,0.00,425,HR-IXP-WINDi_r2_v1.2,2013-01-15 22:05:00,
2013-01-15 14:11:00,61.1,19.7,30.36,North,355,4.0,9.0,20,0.00,,,0.00,408,HR-IXP-WINDi_r2_v1.2,2013-01-15 22:11:00,
2013-01-15 14:16:00,61.1,18.5,30.36,NW,325,6.0,8.0,19,0.00,,,0.00,387,HR-IXP-WINDi_r2_v1.2,2013-01-15 22:16:00,
2013-01-15 14:21:00,61.1,18.5,30.36,NW,321,2.0,7.0,19,0.00,,,0.00,387,HR-IXP-WINDi_r2_v1.2,2013-01-15 22:21:00,
2013-01-15 14:26:00,61.3,19.9,30.36,NNW,336,4.0,8.0,20,0.00,,,0.00,378,HR-IXP-WINDi_r2_v1.2,2013-01-15 22:26:00,
2013-01-15 14:32:00,61.8,21.5,30.36,NW,318,2.0,8.0,21,0.00,,,0.00,364,HR-IXP-WINDi_r2_v1.2,2013-01-15 22:32:00,
2013-01-15 14:37:00,61.9,20.4,30.36,NW,309,2.0,8.0,20,0.00,,,0.00,355,HR-IXP-WINDi_r2_v1.2,2013-01-15 22:37:00,
2013-01-15 14:42:00,61.4,18.8,30.36,West,267,2.0,8.0,19,0.00,,,0.00,336,HR-IXP-WINDi_r2_v1.2,2013-01-15 22:42:00,
2013-01-15 14:47:00,61.2,19.8,30.36,WNW,300,2.0,7.0,20,0.00,,,0.00,309,HR-IXP-WINDi_r2_v1.2,2013-01-15 22:47:00,
2013-01-15 14:53:00,61.2,19.8,30.36,West,273,4.0,7.0,20,0.00,,,0.00,294,HR-IXP-WINDi_r2_v1.2,2013-01-15 22:53:00,
2013-01-15 14:58:00,61.4,22.2,30.36,WNW,294,4.0,8.0,22,0.00,,,0.00,236,HR-IXP-WINDi_r2_v1.2,2013-01-15 22:58:00,
2013-01-15 15:03:00,61.4,21.1,30.36,WNW,282,4.0,8.0,21,0.00,,,0.00,169,HR-IXP-WINDi_r2_v1.2,2013-01-15 23:03:00,
2013-01-15 15:08:00,61.6,21.3,30.36,WNW,292,4.0,8.0,21,0.00,,,0.00,142,HR-IXP-WINDi_r2_v1.2,2013-01-15 23:08:00,
2013-01-15 15:13:00,61.4,20.0,30.36,NW,314,4.0,8.0,20,0.00,,,0.00,153,HR-IXP-WINDi_r2_v1.2,2013-01-15 23:13:00,
2013-01-15 15:19:00,61.5,20.1,30.36,West,261,7.0,8.0,20,0.00,,,0.00,155,HR-IXP-WINDi_r2_v1.2,2013-01-15 23:19:00,
2013-01-15 15:24:00,61.1,19.7,30.36,West,278,5.0,9.0,20,0.00,,,0.00,155,HR-IXP-WINDi_r2_v1.2,2013-01-15 23:24:00,
2013-01-15 15:29:00,60.8,19.5,30.36,West,275,3.0,9.0,20,0.00,,,0.00,158,HR-IXP-WINDi_r2_v1.2,2013-01-15 23:29:00,
2013-01-15 15:34:00,61.0,22.9,30.36,West,271,8.0,9.0,23,0.00,,,0.00,160,HR-IXP-WINDi_r2_v1.2,2013-01-15 23:34:00,
2013-01-15 15:39:00,60.5,24.5,30.36,WNW,293,6.0,9.0,25,0.00,,,0.00,162,HR-IXP-WINDi_r2_v1.2,2013-01-15 23:39:00,
2013-01-15 15:44:00,59.5,23.6,30.36,West,265,6.0,11.0,25,0.00,,,0.00,156,HR-IXP-WINDi_r2_v1.2,2013-01-15 23:44:00,
2013-01-15 15:49:00,59.5,23.6,30.36,WSW,257,3.0,11.0,25,0.00,,,0.00,148,HR-IXP-WINDi_r2_v1.2,2013-01-15 23:49:00,
2013-01-15 15:54:00,58.8,22.1,30.36,WNW,292,2.0,10.0,24,0.00,,,0.00,141,HR-IXP-WINDi_r2_v1.2,2013-01-15 23:54:00,
2013-01-15 15:59:00,58.9,22.2,30.36,NNW,336,5.0,10.0,24,0.00,,,0.00,132,HR-IXP-WINDi_r2_v1.2,2013-01-15 23:59:00,
2013-01-15 16:04:00,58.5,21.8,30.36,North,360,5.0,9.0,24,0.00,,,0.00,121,HR-IXP-WINDi_r2_v1.2,2013-01-16 00:04:00,
2013-01-15 16:10:00,58.3,21.7,30.36,West,278,3.0,9.0,24,0.00,,,0.00,28,HR-IXP-WINDi_r2_v1.2,2013-01-16 00:10:00,
2013-01-15 16:15:00,58.0,22.4,30.37,NW,317,3.0,7.0,25,0.00,,,0.00,25,HR-IXP-WINDi_r2_v1.2,2013-01-16 00:15:00,
2013-01-15 16:20:00,57.7,23.0,30.36,NNW,331,3.0,7.0,26,0.00,,,0.00,23,HR-IXP-WINDi_r2_v1.2,2013-01-16 00:20:00,
2013-01-15 16:25:00,57.6,23.9,30.36,West,271,4.0,6.0,27,0.00,,,0.00,26,HR-IXP-WINDi_r2_v1.2,2013-01-16 00:25:00,
2013-01-15 16:30:00,57.3,23.6,30.37,WNW,299,2.0,7.0,27,0.00,,,0.00,28,HR-IXP-WINDi_r2_v1.2,2013-01-16 00:30:00,
2013-01-15 16:36:00,57.0,24.2,30.37,West,279,1.0,7.0,28,0.00,,,0.00,19,HR-IXP-WINDi_r2_v1.2,2013-01-16 00:36:00,
2013-01-15 16:41:00,56.9,25.0,30.37,NW,321,1.0,6.0,29,0.00,,,0.00,16,HR-IXP-WINDi_r2_v1.2,2013-01-16 00:41:00,
2013-01-15 16:46:00,56.7,26.4,30.37,WNW,292,3.0,6.0,31,0.00,,,0.00,16,HR-IXP-WINDi_r2_v1.2,2013-01-16 00:46:00,
2013-01-15 16:51:00,56.4,26.1,30.38,West,279,3.0,6.0,31,0.00,,,0.00,18,HR-IXP-WINDi_r2_v1.2,2013-01-16 00:51:00,
2013-01-15 16:56:00,56.0,25.8,30.38,West,263,4.0,5.0,31,0.00,,,0.00,11,HR-IXP-WINDi_r2_v1.2,2013-01-16 00:56:00,
2013-01-15 17:01:00,55.7,26.3,30.38,West,269,4.0,6.0,32,0.00,,,0.00,7,HR-IXP-WINDi_r2_v1.2,2013-01-16 01:01:00,
2013-01-15 17:07:00,55.1,27.2,30.38,West,271,5.0,9.0,34,0.00,,,0.00,0,HR-IXP-WINDi_r2_v1.2,2013-01-16 01:07:00,
2013-01-15 17:12:00,54.8,28.3,30.38,WNW,292,3.0,9.0,36,0.00,,,0.00,0,HR-IXP-WINDi_r2_v1.2,2013-01-16 01:12:00,
2013-01-15 17:17:00,54.5,29.4,30.39,West,274,2.0,7.0,38,0.00,,,0.00,0,HR-IXP-WINDi_r2_v1.2,2013-01-16 01:17:00,
2013-01-15 17:22:00,54.2,29.1,30.39,West,280,3.0,6.0,38,0.00,,,0.00,0,HR-IXP-WINDi_r2_v1.2,2013-01-16 01:22:00,
2013-01-15 17:27:00,54.0,29.6,30.38,West,276,2.0,5.0,39,0.00,,,0.00,0,HR-IXP-WINDi_r2_v1.2,2013-01-16 01:27:00,
2013-01-15 17:32:00,53.8,30.0,30.39,West,269,1.0,5.0,40,0.00,,,0.00,0,HR-IXP-WINDi_r2_v1.2,2013-01-16 01:32:00,
2013-01-15 17:37:00,53.5,29.8,30.39,West,269,2.0,5.0,40,0.00,,,0.00,0,HR-IXP-WINDi_r2_v1.2,2013-01-16 01:37:00,
2013-01-15 17:43:00,53.2,29.5,30.39,West,269,1.0,3.0,40,0.00,,,0.00,0,HR-IXP-WINDi_r2_v1.2,2013-01-16 01:43:00,
2013-01-15 17:48:00,53.1,30.0,30.38,West,269,2.0,3.0,41,0.00,,,0.00,0,HR-IXP-WINDi_r2_v1.2,2013-01-16 01:48:00,
2013-01-15 17:53:00,52.9,30.4,30.39,West,269,0.0,3.0,42,0.00,,,0.00,0,HR-IXP-WINDi_r2_v1.2,2013-01-16 01:53:00,
2013-01-15 17:58:00,52.7,30.8,30.39,West,269,0.0,3.0,43,0.00,,,0.00,0,HR-IXP-WINDi_r2_v1.2,2013-01-16 01:58:00,
2013-01-15 18:03:00,52.5,30.6,30.39,West,269,0.0,2.0,43,0.00,,,0.00,0,HR-IXP-WINDi_r2_v1.2,2013-01-16 02:03:00,
2013-01-15 18:08:00,52.4,31.1,30.40,West,269,0.0,1.0,44,0.00,,,0.00,0,HR-IXP-WINDi_r2_v1.2,2013-01-16 02:08:00,
2013-01-15 18:13:00,52.3,31.6,30.40,West,269,0.0,1.0,45,0.00,,,0.00,0,HR-IXP-WINDi_r2_v1.2,2013-01-16 02:13:00,
2013-01-15 18:19:00,52.2,32.5,30.40,West,269,0.0,2.0,47,0.00,,,0.00,0,HR-IXP-WINDi_r2_v1.2,2013-01-16 02:19:00,
2013-01-15 18:24:00,51.9,32.8,30.40,West,269,0.0,2.0,48,0.00,,,0.00,0,HR-IXP-WINDi_r2_v1.2,2013-01-16 02:24:00,
2013-01-15 18:29:00,51.7,33.1,30.40,West,269,0.0,1.0,49,0.00,,,0.00,0,HR-IXP-WINDi_r2_v1.2,2013-01-16 02:29:00,
2013-01-15 18:34:00,51.2,33.2,30.40,West,269,0.0,1.0,50,0.00,,,0.00,0,HR-IXP-WINDi_r2_v1.2,2013-01-16 02:34:00,
2013-01-15 18:39:00,50.5,32.5,30.40,West,269,0.0,0.0,50,0.00,,,0.00,0,HR-IXP-WINDi_r2_v1.2,2013-01-16 02:39:00,
2013-01-15 18:44:00,50.2,32.7,30.40,West,269,0.0,0.0,51,0.00,,,0.00,0,HR-IXP-WINDi_r2_v1.2,2013-01-16 02:44:00,
2013-01-15 18:50:00,49.7,32.8,30.40,West,269,0.0,1.0,52,0.00,,,0.00,0,HR-IXP-WINDi_r2_v1.2,2013-01-16 02:50:00,
2013-01-15 18:55:00,49.4,33.0,30.40,West,269,0.0,1.0,53,0.00,,,0.00,0,HR-IXP-WINDi_r2_v1.2,2013-01-16 02:55:00,
2013-01-15 19:00:00,49.4,33.0,30.40,West,269,0.0,0.0,53,0.00,,,0.00,0,HR-IXP-WINDi_r2_v1.2,2013-01-16 03:00:00,
2013-01-15 19:05:00,49.5,33.0,30.40,West,269,0.0,0.0,53,0.00,,,0.00,0,HR-IXP-WINDi_r2_v1.2,2013-01-16 03:05:00,
2013-01-15 19:10:00,49.2,33.2,30.40,West,269,0.0,0.0,54,0.00,,,0.00,0,HR-IXP-WINDi_r2_v1.2,2013-01-16 03:10:00,
2013-01-15 19:15:00,49.4,33.9,30.40,West,269,0.0,1.0,55,0.00,,,0.00,0,HR-IXP-WINDi_r2_v1.2,2013-01-16 03:15:00,
2013-01-15 19:21:00,50.0,34.9,30.40,West,269,0.0,2.0,56,0.00,,,0.00,0,HR-IXP-WINDi_r2_v1.2,2013-01-16 03:21:00,
2013-01-15 19:26:00,50.0,35.3,30.40,West,269,1.0,2.0,57,0.00,,,0.00,0,HR-IXP-WINDi_r2_v1.2,2013-01-16 03:26:00,
2013-01-15 19:31:00,49.8,35.1,30.40,West,269,1.0,1.0,57,0.00,,,0.00,0,HR-IXP-WINDi_r2_v1.2,2013-01-16 03:31:00,
2013-01-15 19:36:00,49.9,36.1,30.40,West,269,0.0,1.0,59,0.00,,,0.00,0,HR-IXP-WINDi_r2_v1.2,2013-01-16 03:36:00,
2013-01-15 19:41:00,49.7,36.3,30.40,West,269,0.0,2.0,60,0.00,,,0.00,0,HR-IXP-WINDi_r2_v1.2,2013-01-16 03:41:00,
2013-01-15 19:46:00,49.5,36.6,30.40,West,269,1.0,2.0,61,0.00,,,0.00,0,HR-IXP-WINDi_r2_v1.2,2013-01-16 03:46:00,
2013-01-15 19:52:00,49.2,36.7,30.39,West,269,0.0,2.0,62,0.00,,,0.00,0,HR-IXP-WINDi_r2_v1.2,2013-01-16 03:52:00,
2013-01-15 19:57:00,48.9,36.8,30.39,NW,326,0.0,4.0,63,0.00,,,0.00,0,HR-IXP-WINDi_r2_v1.2,2013-01-16 03:57:00,
2013-01-15 20:02:00,48.7,37.0,30.39,NW,326,0.0,4.0,64,0.00,,,0.00,0,HR-IXP-WINDi_r2_v1.2,2013-01-16 04:02:00,
2013-01-15 20:07:00,48.5,37.2,30.40,NW,326,0.0,2.0,65,0.00,,,0.00,0,HR-IXP-WINDi_r2_v1.2,2013-01-16 04:07:00,
2013-01-15 20:12:00,48.1,37.2,30.39,NW,326,0.0,1.0,66,0.00,,,0.00,0,HR-IXP-WINDi_r2_v1.2,2013-01-16 04:12:00,
2013-01-15 20:17:00,48.0,37.5,30.40,NW,326,0.0,1.0,67,0.00,,,0.00,0,HR-IXP-WINDi_r2_v1.2,2013-01-16 04:17:00,
2013-01-15 20:23:00,48.1,37.6,30.40,NW,326,0.0,1.0,67,0.00,,,0.00,0,HR-IXP-WINDi_r2_v1.2,2013-01-16 04:23:00,
2013-01-15 20:28:00,47.8,37.3,30.40,NW,326,0.0,1.0,67,0.00,,,0.00,0,HR-IXP-WINDi_r2_v1.2,2013-01-16 04:28:00,
2013-01-15 20:33:00,47.1,36.7,30.40,NW,326,0.0,1.0,67,0.00,,,0.00,0,HR-IXP-WINDi_r2_v1.2,2013-01-16 04:33:00,
2013-01-15 20:38:00,46.1,36.5,30.40,NW,326,1.0,1.0,69,0.00,,,0.00,0,HR-IXP-WINDi_r2_v1.2,2013-01-16 04:38:00,
2013-01-15 20:43:00,46.2,37.3,30.40,NW,326,0.0,2.0,71,0.00,,,0.00,0,HR-IXP-WINDi_r2_v1.2,2013-01-16 04:43:00,
2013-01-15 20:49:00,46.2,37.3,30.40,NW,326,0.0,2.0,71,0.00,,,0.00,0,HR-IXP-WINDi_r2_v1.2,2013-01-16 04:49:00,
2013-01-15 20:54:00,46.0,37.1,30.40,NW,326,0.0,1.0,71,0.00,,,0.00,0,HR-IXP-WINDi_r2_v1.2,2013-01-16 04:54:00,
2013-01-15 20:59:00,46.0,37.1,30.40,NW,326,0.0,0.0,71,0.00,,,0.00,0,HR-IXP-WINDi_r2_v1.2,2013-01-16 04:59:00,
2013-01-15 21:00:00,45.9,37.0,30.40,NW,326,0.0,0.0,71,0.00,,,0.00,0,HR-IXP-WINDi_r2_v1.2,2013-01-16 05:00:00,
2013-01-15 21:05:00,46.0,37.4,30.40,NW,326,0.0,0.0,72,0.00,,,0.00,0,HR-IXP-WINDi_r2_v1.2,2013-01-16 05:05:00,
2013-01-15 21:10:00,45.9,37.3,30.40,NW,326,0.0,1.0,72,0.00,,,0.00,0,HR-IXP-WINDi_r2_v1.2,2013-01-16 05:10:00,
2013-01-15 21:15:00,45.9,37.3,30.40,NW,326,0.0,1.0,72,0.00,,,0.00,0,HR-IXP-WINDi_r2_v1.2,2013-01-16 05:15:00,
2013-01-15 21:20:00,45.7,36.8,30.40,NW,326,0.0,1.0,71,0.00,,,0.00,0,HR-IXP-WINDi_r2_v1.2,2013-01-16 05:20:00,
2013-01-15 21:25:00,45.8,37.2,30.39,NW,326,0.0,1.0,72,0.00,,,0.00,0,HR-IXP-WINDi_r2_v1.2,2013-01-16 05:25:00,
2013-01-15 21:31:00,45.5,37.3,30.39,NW,326,0.0,0.0,73,0.00,,,0.00,0,HR-IXP-WINDi_r2_v1.2,2013-01-16 05:31:00,
2013-01-15 21:36:00,44.8,36.3,30.39,NW,326,2.0,2.0,72,0.00,,,0.00,0,HR-IXP-WINDi_r2_v1.2,2013-01-16 05:36:00,
2013-01-15 21:41:00,44.3,36.5,30.39,NW,326,0.0,2.0,74,0.00,,,0.00,0,HR-IXP-WINDi_r2_v1.2,2013-01-16 05:41:00,
2013-01-15 21:46:00,44.4,36.6,30.39,NW,326,0.0,2.0,74,0.00,,,0.00,0,HR-IXP-WINDi_r2_v1.2,2013-01-16 05:46:00,
2013-01-15 21:51:00,44.3,36.8,30.39,NW,326,0.0,1.0,75,0.00,,,0.00,0,HR-IXP-WINDi_r2_v1.2,2013-01-16 05:51:00,
2013-01-15 21:57:00,44.3,36.8,30.39,NW,326,0.0,0.0,75,0.00,,,0.00,0,HR-IXP-WINDi_r2_v1.2,2013-01-16 05:57:00,
2013-01-15 22:02:00,44.2,36.7,30.39,NW,326,0.0,0.0,75,0.00,,,0.00,0,HR-IXP-WINDi_r2_v1.2,2013-01-16 06:02:00,
2013-01-15 22:07:00,43.9,36.5,30.39,NW,326,0.0,0.0,75,0.00,,,0.00,0,HR-IXP-WINDi_r2_v1.2,2013-01-16 06:07:00,
2013-01-15 22:12:00,43.8,36.7,30.38,NW,326,0.0,0.0,76,0.00,,,0.00,0,HR-IXP-WINDi_r2_v1.2,2013-01-16 06:12:00,
2013-01-15 22:17:00,43.7,36.6,30.39,NW,326,0.0,0.0,76,0.00,,,0.00,0,HR-IXP-WINDi_r2_v1.2,2013-01-16 06:17:00,
2013-01-15 22:22:00,43.7,36.6,30.38,NW,326,0.0,0.0,76,0.00,,,0.00,0,HR-IXP-WINDi_r2_v1.2,2013-01-16 06:22:00,
2013-01-15 22:28:00,43.4,36.3,30.38,NW,326,0.0,0.0,76,0.00,,,0.00,0,HR-IXP-WINDi_r2_v1.2,2013-01-16 06:28:00,
2013-01-15 22:33:00,43.3,36.2,30.38,NW,326,0.0,0.0,76,0.00,,,0.00,0,HR-IXP-WINDi_r2_v1.2,2013-01-16 06:33:00,
2013-01-15 22:38:00,43.1,36.0,30.38,NW,326,0.0,0.0,76,0.00,,,0.00,0,HR-IXP-WINDi_r2_v1.2,2013-01-16 06:38:00,
2013-01-15 22:43:00,43.1,36.0,30.38,NW,326,0.0,0.0,76,0.00,,,0.00,0,HR-IXP-WINDi_r2_v1.2,2013-01-16 06:43:00,
2013-01-15 22:48:00,43.2,36.4,30.38,NW,326,0.0,0.0,77,0.00,,,0.00,0,HR-IXP-WINDi_r2_v1.2,2013-01-16 06:48:00,
2013-01-15 22:53:00,43.2,36.4,30.38,NW,326,0.0,0.0,77,0.00,,,0.00,0,HR-IXP-WINDi_r2_v1.2,2013-01-16 06:53:00,
2013-01-15 22:59:00,43.4,36.6,30.38,NW,326,0.0,0.0,77,0.00,,,0.00,0,HR-IXP-WINDi_r2_v1.2,2013-01-16 06:59:00,
2013-01-15 23:04:00,43.2,36.1,30.38,NW,326,0.0,0.0,76,0.00,,,0.00,0,HR-IXP-WINDi_r2_v1.2,2013-01-16 07:04:00,
2013-01-15 23:09:00,43.1,36.0,30.38,NW,326,0.0,0.0,76,0.00,,,0.00,0,HR-IXP-WINDi_r2_v1.2,2013-01-16 07:09:00,
2013-01-15 23:14:00,42.8,36.1,30.38,NW,326,0.0,0.0,77,0.00,,,0.00,0,HR-IXP-WINDi_r2_v1.2,2013-01-16 07:14:00,
2013-01-15 23:20:00,42.4,35.7,30.38,NW,326,0.0,1.0,77,0.00,,,0.00,0,HR-IXP-WINDi_r2_v1.2,2013-01-16 07:20:00,
2013-01-15 23:25:00,42.0,35.3,30.38,NW,326,0.0,1.0,77,0.00,,,0.00,0,HR-IXP-WINDi_r2_v1.2,2013-01-16 07:25:00,
2013-01-15 23:30:00,42.5,35.8,30.38,NW,326,0.0,1.0,77,0.00,,,0.00,0,HR-IXP-WINDi_r2_v1.2,2013-01-16 07:30:00,
2013-01-15 23:35:00,42.3,35.2,30.38,NW,326,0.0,1.0,76,0.00,,,0.00,0,HR-IXP-WINDi_r2_v1.2,2013-01-16 07:35:00,
2013-01-15 23:41:00,41.8,35.1,30.38,NW,326,2.0,2.0,77,0.00,,,0.00,0,HR-IXP-WINDi_r2_v1.2,2013-01-16 07:41:00,
2013-01-15 23:46:00,41.6,34.9,30.38,NW,326,0.0,3.0,77,0.00,,,0.00,0,HR-IXP-WINDi_r2_v1.2,2013-01-16 07:46:00,
2013-01-15 23:51:00,41.8,35.1,30.38,WNW,292,0.0,3.0,77,0.00,,,0.00,0,HR-IXP-WINDi_r2_v1.2,2013-01-16 07:51:00,
2013-01-15 23:56:00,42.0,34.9,30.38,WNW,292,0.0,3.0,76,0.00,,,0.00,0,HR-IXP-WINDi_r2_v1.2,2013-01-16 07:56:00,